Time;durP1;ratioP1;P1;durP2;ratioP2;P2;SDS_P1;SDS_P2;PMS_P1;PMS_P2;Temp;Humidity;BMP_temperature;BMP_pressure;BME280_temperature;BME280_humidity;BME280_pressure;Samples;Min_cycle;Max_cycle;Signal;HPM_P1;HPM_P2
2023/05/19 00:02:19;;;;;;;8.37;3.53;;;12.50;99.90;;;;;;5117100;27;20207;-41
2023/05/19 00:04:46;;;;;;;6.80;3.60;;;12.50;99.90;;;;;;5117036;27;20184;-35
2023/05/19 00:07:16;;;;;;;6.77;3.37;;;12.50;99.90;;;;;;5117172;27;20206;-39
2023/05/19 00:09:42;;;;;;;5.83;3.07;;;12.40;99.90;;;;;;5117141;27;20179;-35
2023/05/19 00:12:09;;;;;;;10.83;3.10;;;12.40;99.90;;;;;;5117020;27;20712;-35
2023/05/19 00:14:35;;;;;;;5.63;2.80;;;12.50;99.90;;;;;;5116520;27;20211;-36
2023/05/19 00:17:01;;;;;;;6.20;3.07;;;12.50;99.90;;;;;;5099423;28;20202;-38
2023/05/19 00:19:31;;;;;;;6.77;2.97;;;12.50;99.90;;;;;;5079921;28;20292;-39
2023/05/19 00:21:57;;;;;;;4.73;2.97;;;12.50;99.90;;;;;;5079262;28;20179;-36
2023/05/19 00:24:23;;;;;;;6.77;2.90;;;12.60;99.90;;;;;;5095817;28;20227;-37
2023/05/19 00:26:49;;;;;;;5.97;2.87;;;12.60;99.90;;;;;;5078905;28;20246;-40
2023/05/19 00:29:17;;;;;;;7.40;3.07;;;12.60;99.90;;;;;;5095950;28;20179;-38
2023/05/19 00:31:43;;;;;;;5.83;2.80;;;12.60;99.90;;;;;;5096204;28;20237;-37
2023/05/19 00:34:09;;;;;;;7.13;3.53;;;12.60;99.90;;;;;;5111920;28;20195;-34
2023/05/19 00:36:35;;;;;;;7.83;3.47;;;12.60;99.90;;;;;;5098809;27;20186;-36
2023/05/19 00:39:02;;;;;;;7.40;3.30;;;12.60;99.90;;;;;;5116796;27;20186;-35
2023/05/19 00:41:28;;;;;;;6.20;3.20;;;12.60;99.90;;;;;;5099403;27;20226;-33
2023/05/19 00:43:54;;;;;;;5.87;3.10;;;12.50;99.90;;;;;;5107719;28;20196;-33
2023/05/19 00:46:21;;;;;;;9.70;3.40;;;12.50;99.90;;;;;;5078813;28;20199;-34
2023/05/19 00:48:47;;;;;;;10.77;3.40;;;12.50;99.90;;;;;;5114311;28;20178;-33
2023/05/19 00:51:15;;;;;;;5.57;3.10;;;12.60;99.90;;;;;;5100164;27;20175;-32
2023/05/19 00:53:42;;;;;;;6.63;3.30;;;12.60;99.90;;;;;;5116070;27;20194;-32
2023/05/19 00:56:09;;;;;;;5.80;3.00;;;12.60;99.90;;;;;;5115735;27;20182;-32
2023/05/19 00:58:35;;;;;;;6.13;3.17;;;12.60;99.90;;;;;;5099250;27;20220;-31
2023/05/19 01:01:03;;;;;;;4.20;3.27;;;12.50;99.90;;;;;;5115848;27;20273;-32
2023/05/19 01:03:30;;;;;;;5.77;2.97;;;12.50;99.90;;;;;;5108549;28;20233;-30
2023/05/19 01:06:00;;;;;;;5.67;2.97;;;12.60;99.90;;;;;;5095504;28;20240;-33
2023/05/19 01:08:27;;;;;;;6.37;3.13;;;12.50;99.90;;;;;;5114255;28;20202;-35
2023/05/19 01:10:52;;;;;;;4.60;3.00;;;12.50;99.90;;;;;;5094367;28;20297;-32
2023/05/19 01:13:18;;;;;;;5.03;3.03;;;12.50;99.90;;;;;;5096148;27;20274;-37
2023/05/19 01:16:02;;;;;;;6.00;2.90;;;12.50;99.90;;;;;;5103618;28;20186;-37
2023/05/19 01:18:48;;;;;;;6.10;2.93;;;12.50;99.90;;;;;;5095345;28;20187;-33
2023/05/19 01:21:43;;;;;;;5.87;3.30;;;12.50;99.90;;;;;;5082088;27;20163;-31
2023/05/19 01:24:36;;;;;;;5.77;2.97;;;12.40;99.90;;;;;;5115765;27;20289;-32
2023/05/19 01:27:23;;;;;;;6.37;3.57;;;12.40;99.90;;;;;;5134209;27;20222;-32
2023/05/19 01:30:10;;;;;;;5.13;3.20;;;12.30;99.90;;;;;;5134291;27;20231;-33
2023/05/19 01:32:39;;;;;;;6.67;3.03;;;12.30;99.90;;;;;;5097496;28;20190;-32
2023/05/19 01:35:08;;;;;;;5.23;3.10;;;12.20;99.90;;;;;;5095187;28;20179;-32
2023/05/19 01:37:34;;;;;;;6.00;3.40;;;12.20;99.90;;;;;;5093804;27;20246;-31
2023/05/19 01:40:01;;;;;;;5.70;3.10;;;12.20;99.90;;;;;;5133572;27;20173;-33
2023/05/19 01:42:28;;;;;;;5.20;3.20;;;12.10;99.90;;;;;;5097954;28;20179;-33
2023/05/19 01:44:55;;;;;;;6.43;3.40;;;12.10;99.90;;;;;;5103972;27;20201;-32
2023/05/19 01:47:22;;;;;;;6.50;3.23;;;12.10;99.90;;;;;;5095667;28;20238;-34
2023/05/19 01:49:47;;;;;;;8.17;3.57;;;12.10;99.90;;;;;;5095267;28;20179;-32
2023/05/19 01:52:13;;;;;;;6.67;3.47;;;12.10;99.90;;;;;;5094610;28;20266;-33
2023/05/19 01:54:39;;;;;;;7.57;2.93;;;12.10;99.90;;;;;;5109147;27;20176;-33
2023/05/19 01:57:23;;;;;;;5.87;3.10;;;12.10;99.90;;;;;;5114685;27;20202;-33
2023/05/19 02:00:04;;;;;;;5.60;2.87;;;12.10;99.90;;;;;;5114842;27;20182;-32
2023/05/19 02:02:59;;;;;;;6.50;3.27;;;12.10;99.90;;;;;;5116249;27;20221;-33
2023/05/19 02:05:42;;;;;;;7.50;3.33;;;12.10;99.90;;;;;;5097545;27;20179;-32
2023/05/19 02:08:19;;;;;;;7.20;3.43;;;12.10;99.90;;;;;;5114610;27;20174;-31
2023/05/19 02:10:52;;;;;;;7.37;3.30;;;12.00;99.90;;;;;;5097598;27;20179;-32
2023/05/19 02:13:22;;;;;;;5.13;3.17;;;11.90;99.90;;;;;;5113982;27;20267;-31
2023/05/19 02:15:49;;;;;;;6.07;3.27;;;11.90;99.90;;;;;;5106076;27;20179;-32
2023/05/19 02:18:19;;;;;;;6.33;3.27;;;11.90;99.90;;;;;;5097160;27;20183;-34
2023/05/19 02:20:50;;;;;;;6.07;2.90;;;11.90;99.90;;;;;;5133090;27;20194;-34
2023/05/19 02:23:15;;;;;;;4.07;2.57;;;11.90;99.90;;;;;;5097269;27;20292;-33
2023/05/19 02:25:41;;;;;;;5.13;3.67;;;11.90;99.90;;;;;;5096714;27;20292;-31
2023/05/19 02:28:07;;;;;;;4.50;2.90;;;11.90;99.90;;;;;;5114319;27;20171;-32
2023/05/19 02:30:33;;;;;;;5.37;3.33;;;11.90;99.90;;;;;;5095659;27;20234;-31
2023/05/19 02:32:59;;;;;;;6.10;3.20;;;11.90;99.90;;;;;;5132913;27;20284;-32
2023/05/19 02:35:25;;;;;;;4.43;2.97;;;11.90;99.90;;;;;;5113289;27;20261;-33
2023/05/19 02:37:51;;;;;;;7.77;3.37;;;11.80;99.90;;;;;;5133006;27;20170;-34
2023/05/19 02:40:17;;;;;;;5.20;2.83;;;11.80;99.90;;;;;;5114376;27;20186;-33
2023/05/19 02:42:43;;;;;;;5.93;3.10;;;11.80;99.90;;;;;;5114172;27;20204;-32
2023/05/19 02:45:09;;;;;;;7.20;3.20;;;11.80;99.90;;;;;;5112714;27;20180;-32
2023/05/19 02:47:37;;;;;;;5.43;3.40;;;11.80;99.90;;;;;;5076836;28;20213;-32
2023/05/19 02:50:04;;;;;;;5.20;3.73;;;11.70;99.90;;;;;;5093893;28;20183;-33
2023/05/19 02:52:31;;;;;;;5.27;3.30;;;11.70;99.90;;;;;;5093634;28;20204;-34
2023/05/19 02:54:57;;;;;;;7.03;3.27;;;11.70;99.90;;;;;;5093621;28;20181;-31
2023/05/19 02:57:23;;;;;;;9.47;3.23;;;11.70;99.90;;;;;;5093689;28;20251;-32
2023/05/19 02:59:49;;;;;;;5.80;3.17;;;11.70;99.90;;;;;;5076643;28;20207;-31
2023/05/19 03:02:15;;;;;;;6.50;3.33;;;11.70;99.90;;;;;;5093810;28;20186;-32
2023/05/19 03:04:41;;;;;;;7.83;3.70;;;11.60;99.90;;;;;;5093722;28;20178;-32
2023/05/19 03:07:12;;;;;;;5.00;3.00;;;11.60;99.90;;;;;;5076753;28;20203;-32
2023/05/19 03:09:38;;;;;;;8.17;3.10;;;11.70;99.90;;;;;;5093532;28;20170;-32
2023/05/19 03:12:06;;;;;;;6.00;3.50;;;11.70;99.90;;;;;;5093304;28;20272;-34
2023/05/19 03:14:33;;;;;;;5.77;3.23;;;11.70;99.90;;;;;;5090479;28;20210;-31
2023/05/19 03:16:59;;;;;;;4.93;3.50;;;11.70;99.90;;;;;;5097694;28;20186;-31
2023/05/19 03:19:26;;;;;;;6.20;3.50;;;11.60;99.90;;;;;;5093304;28;20190;-33
2023/05/19 03:21:52;;;;;;;6.00;3.63;;;11.60;99.90;;;;;;5093281;28;20267;-33
2023/05/19 03:24:18;;;;;;;7.30;3.30;;;11.60;99.90;;;;;;5092984;28;20272;-33
2023/05/19 03:26:43;;;;;;;6.13;3.10;;;11.50;99.90;;;;;;5092846;28;20282;-32
2023/05/19 03:29:09;;;;;;;4.43;3.43;;;11.60;99.90;;;;;;5093267;28;20181;-32
2023/05/19 03:31:36;;;;;;;4.50;3.20;;;11.60;99.90;;;;;;5092776;28;20177;-31
2023/05/19 03:34:03;;;;;;;6.23;3.23;;;11.60;99.90;;;;;;5094830;28;20203;-31
2023/05/19 03:36:31;;;;;;;5.03;3.27;;;11.60;99.90;;;;;;5097268;28;20187;-33
2023/05/19 03:38:58;;;;;;;6.33;3.53;;;11.60;99.90;;;;;;5097342;28;20224;-31
2023/05/19 03:41:24;;;;;;;5.37;3.27;;;11.60;99.90;;;;;;5097226;28;20175;-31
2023/05/19 03:43:50;;;;;;;4.17;2.90;;;11.60;99.90;;;;;;5105893;27;20288;-32
2023/05/19 03:46:16;;;;;;;4.70;3.00;;;11.60;99.90;;;;;;5108869;27;20293;-32
2023/05/19 03:49:07;;;;;;;4.50;2.90;;;11.60;99.90;;;;;;5108047;28;20178;-33
2023/05/19 03:51:51;;;;;;;7.43;3.07;;;11.70;99.90;;;;;;5133569;27;20203;-32
2023/05/19 03:54:27;;;;;;;4.17;3.33;;;11.60;99.90;;;;;;5137630;27;20201;-33
2023/05/19 03:56:53;;;;;;;4.37;3.30;;;11.60;99.90;;;;;;5137881;27;20200;-32
2023/05/19 03:59:19;;;;;;;4.87;2.90;;;11.70;99.90;;;;;;5137902;27;20185;-33
2023/05/19 04:01:45;;;;;;;4.97;3.10;;;11.60;99.90;;;;;;5138120;27;20180;-33
2023/05/19 04:04:11;;;;;;;4.37;3.00;;;11.70;99.90;;;;;;5120607;27;20208;-32
2023/05/19 04:06:36;;;;;;;6.17;3.50;;;11.70;99.90;;;;;;5137825;27;20235;-32
2023/05/19 04:09:10;;;;;;;4.97;3.63;;;11.70;99.90;;;;;;5120694;27;20187;-32
2023/05/19 04:11:36;;;;;;;5.93;3.10;;;11.70;99.90;;;;;;5120228;27;20174;-33
2023/05/19 04:14:01;;;;;;;4.10;2.90;;;11.70;99.90;;;;;;5106310;28;20245;-33
2023/05/19 04:16:27;;;;;;;5.57;3.23;;;11.70;99.90;;;;;;5113358;28;20215;-33
2023/05/19 04:18:53;;;;;;;5.27;3.13;;;11.70;99.90;;;;;;5096667;28;20180;-33
2023/05/19 04:21:21;;;;;;;4.77;3.13;;;11.70;99.90;;;;;;5096630;28;20182;-32
2023/05/19 04:23:47;;;;;;;4.43;3.10;;;11.70;99.90;;;;;;5096485;28;20268;-36
2023/05/19 04:26:13;;;;;;;3.70;3.00;;;11.70;99.90;;;;;;5084347;27;20208;-32
2023/05/19 04:28:41;;;;;;;7.30;3.30;;;11.70;99.90;;;;;;5118442;27;20204;-32
2023/05/19 04:31:11;;;;;;;4.87;2.93;;;11.70;99.90;;;;;;5136002;27;20178;-35
2023/05/19 04:33:37;;;;;;;4.27;3.43;;;11.70;99.90;;;;;;5098817;28;20218;-32
2023/05/19 04:36:07;;;;;;;5.20;3.23;;;11.80;99.90;;;;;;5096148;28;20211;-33
2023/05/19 04:38:35;;;;;;;5.50;2.90;;;11.80;99.90;;;;;;5096288;28;20206;-33
2023/05/19 04:41:03;;;;;;;6.53;3.00;;;11.80;99.90;;;;;;5096056;28;20201;-32
2023/05/19 04:43:30;;;;;;;5.07;3.10;;;11.90;99.90;;;;;;5101920;27;20202;-31
2023/05/19 04:45:57;;;;;;;4.90;3.37;;;11.90;99.90;;;;;;5107802;27;20252;-32
2023/05/19 04:48:24;;;;;;;4.40;3.07;;;11.90;99.90;;;;;;5099771;27;20172;-32
2023/05/19 04:50:50;;;;;;;4.17;3.00;;;11.90;99.90;;;;;;5133367;27;20219;-33
2023/05/19 04:53:17;;;;;;;7.87;3.23;;;11.90;99.90;;;;;;5099416;27;20653;-32
2023/05/19 04:55:44;;;;;;;5.10;3.13;;;11.90;99.90;;;;;;5115816;27;20202;-34
2023/05/19 04:58:10;;;;;;;5.67;3.33;;;11.90;99.90;;;;;;5116175;27;20211;-34
2023/05/19 05:00:36;;;;;;;8.37;3.00;;;12.00;99.90;;;;;;5099371;27;20174;-32
2023/05/19 05:03:06;;;;;;;7.60;3.23;;;12.00;99.90;;;;;;5115593;27;20196;-32
2023/05/19 05:05:33;;;;;;;4.97;3.00;;;12.10;99.90;;;;;;5099116;27;20175;-32
2023/05/19 05:07:59;;;;;;;5.53;3.33;;;12.10;99.90;;;;;;5116059;27;20182;-34
2023/05/19 05:10:29;;;;;;;5.00;3.10;;;12.10;99.90;;;;;;5098935;27;20197;-32
2023/05/19 05:12:55;;;;;;;6.07;3.10;;;12.10;99.90;;;;;;5116077;27;20218;-32
2023/05/19 05:15:21;;;;;;;4.87;3.20;;;12.10;99.90;;;;;;5096119;27;20232;-31
2023/05/19 05:17:50;;;;;;;10.13;4.80;;;12.20;99.90;;;;;;5079214;28;20298;-34
2023/05/19 05:20:18;;;;;;;8.83;4.90;;;12.20;99.90;;;;;;5078840;28;20261;-32
2023/05/19 05:22:44;;;;;;;11.10;5.67;;;12.20;99.90;;;;;;5102955;27;20216;-32
2023/05/19 05:25:13;;;;;;;34.63;18.17;;;12.30;99.90;;;;;;5114806;27;20188;-33
2023/05/19 05:27:39;;;;;;;21.20;11.20;;;12.30;99.90;;;;;;5114157;27;20210;-33
2023/05/19 05:30:07;;;;;;;11.50;6.40;;;12.40;99.90;;;;;;5096186;28;20178;-39
2023/05/19 05:32:33;;;;;;;7.70;3.73;;;12.30;99.90;;;;;;5115535;27;20208;-32
2023/05/19 05:35:02;;;;;;;7.77;3.70;;;12.40;99.90;;;;;;5098110;27;20183;-33
2023/05/19 05:37:30;;;;;;;6.60;3.43;;;12.50;99.90;;;;;;5084904;28;20263;-31
2023/05/19 05:39:56;;;;;;;11.83;6.30;;;12.60;99.90;;;;;;5098315;28;20214;-32
2023/05/19 05:42:23;;;;;;;6.87;3.83;;;12.70;99.90;;;;;;5113513;27;20197;-31
2023/05/19 05:44:49;;;;;;;8.50;4.20;;;12.80;99.90;;;;;;5092407;27;20190;-32
2023/05/19 05:47:16;;;;;;;7.40;3.63;;;12.90;99.90;;;;;;5094952;28;20196;-32
2023/05/19 05:49:46;;;;;;;8.73;3.53;;;13.00;99.90;;;;;;5111744;28;20183;-32
2023/05/19 05:52:14;;;;;;;10.63;3.50;;;13.10;99.90;;;;;;5100637;27;20186;-32
2023/05/19 05:54:45;;;;;;;7.10;3.67;;;13.10;99.90;;;;;;5114682;27;20170;-33
2023/05/19 05:57:13;;;;;;;8.07;3.50;;;13.20;99.90;;;;;;5101765;28;20256;-32
2023/05/19 05:59:40;;;;;;;8.37;3.30;;;13.30;99.90;;;;;;5093750;28;20179;-32
2023/05/19 06:02:07;;;;;;;7.90;3.70;;;13.30;99.90;;;;;;5096850;27;20242;-34
2023/05/19 06:04:34;;;;;;;8.30;3.40;;;13.40;99.90;;;;;;5094794;28;20203;-36
2023/05/19 06:07:00;;;;;;;7.07;3.47;;;13.50;99.90;;;;;;5077471;28;20392;-32
2023/05/19 06:09:29;;;;;;;6.50;3.43;;;13.60;99.90;;;;;;5095848;27;20539;-32
2023/05/19 06:12:00;;;;;;;6.17;3.13;;;13.70;99.90;;;;;;5096140;27;20176;-33
2023/05/19 06:14:29;;;;;;;6.77;3.60;;;13.70;99.90;;;;;;5102119;27;20206;-33
2023/05/19 06:17:13;;;;;;;6.90;3.20;;;13.80;99.90;;;;;;5101161;27;20183;-34
2023/05/19 06:19:40;;;;;;;5.63;3.10;;;13.80;99.90;;;;;;5096187;27;20191;-33
2023/05/19 06:22:06;;;;;;;8.50;3.53;;;13.90;99.90;;;;;;5102518;27;20202;-32
2023/05/19 06:24:49;;;;;;;8.93;3.53;;;13.90;99.90;;;;;;5120334;27;20172;-32
2023/05/19 06:27:15;;;;;;;8.67;3.20;;;14.00;99.90;;;;;;5093738;28;20206;-33
2023/05/19 06:29:40;;;;;;;8.50;3.60;;;14.00;99.90;;;;;;5100988;27;20182;-31
2023/05/19 06:32:07;;;;;;;5.33;3.07;;;14.00;99.90;;;;;;5106655;28;20195;-32
2023/05/19 06:34:34;;;;;;;5.37;3.37;;;14.10;99.90;;;;;;5080838;28;20210;-32
2023/05/19 06:37:01;;;;;;;6.90;3.43;;;14.30;99.90;;;;;;5086702;28;20191;-32
2023/05/19 06:39:27;;;;;;;6.17;3.03;;;14.30;99.90;;;;;;5095128;27;20181;-34
2023/05/19 06:41:53;;;;;;;9.50;3.70;;;14.30;99.90;;;;;;5094601;28;20172;-32
2023/05/19 06:44:37;;;;;;;6.00;3.40;;;14.40;99.90;;;;;;5114025;27;20210;-32
2023/05/19 06:47:10;;;;;;;7.37;3.17;;;14.50;99.90;;;;;;5095197;27;20211;-33
2023/05/19 06:49:36;;;;;;;5.03;3.23;;;14.60;99.90;;;;;;5112348;27;20171;-34
2023/05/19 06:52:02;;;;;;;6.07;3.10;;;14.60;99.90;;;;;;5093535;28;20182;-36
2023/05/19 06:54:28;;;;;;;6.93;3.50;;;14.70;99.90;;;;;;5075239;28;20216;-33
2023/05/19 06:56:55;;;;;;;6.87;2.97;;;14.60;99.90;;;;;;5091952;28;20206;-33
2023/05/19 06:59:21;;;;;;;5.17;3.30;;;14.60;99.90;;;;;;5077009;28;20171;-33
2023/05/19 07:01:48;;;;;;;10.27;3.67;;;14.60;99.90;;;;;;5075739;28;20182;-32
2023/05/19 07:04:16;;;;;;;8.53;3.50;;;14.60;99.90;;;;;;5095635;27;20210;-32
2023/05/19 07:06:43;;;;;;;7.70;3.83;;;14.60;99.90;;;;;;5096507;27;20231;-31
2023/05/19 07:09:08;;;;;;;5.27;3.40;;;14.70;99.90;;;;;;5110748;28;20176;-31
2023/05/19 07:11:36;;;;;;;9.43;3.40;;;14.40;99.90;;;;;;5100959;28;20176;-33
2023/05/19 07:14:02;;;;;;;7.77;3.60;;;14.40;99.90;;;;;;5101212;28;20715;-34
2023/05/19 07:16:30;;;;;;;7.50;3.37;;;14.50;99.90;;;;;;5097442;27;20186;-31
2023/05/19 07:18:56;;;;;;;5.50;3.10;;;14.40;99.90;;;;;;5123498;27;20201;-34
2023/05/19 07:21:22;;;;;;;6.10;3.20;;;14.30;99.90;;;;;;5120716;27;20171;-34
2023/05/19 07:23:49;;;;;;;6.73;3.13;;;14.40;99.90;;;;;;5121475;27;20221;-33
2023/05/19 07:26:15;;;;;;;8.60;3.37;;;14.40;99.90;;;;;;5104444;27;20326;-32
2023/05/19 07:28:42;;;;;;;7.83;3.70;;;14.40;99.90;;;;;;5140500;27;20246;-33
2023/05/19 07:31:08;;;;;;;6.67;3.50;;;14.40;99.90;;;;;;5139999;27;20178;-32
2023/05/19 07:33:34;;;;;;;8.23;3.63;;;14.40;99.90;;;;;;5139108;27;20194;-32
2023/05/19 07:36:00;;;;;;;6.37;3.20;;;14.30;99.90;;;;;;5121965;27;20176;-32
2023/05/19 07:38:27;;;;;;;5.47;3.00;;;14.20;99.90;;;;;;5115463;27;20186;-31
2023/05/19 07:40:53;;;;;;;5.57;3.30;;;14.20;99.90;;;;;;5121192;27;20174;-32
2023/05/19 07:43:19;;;;;;;7.20;2.97;;;14.20;99.90;;;;;;5117859;27;20201;-32
2023/05/19 07:45:45;;;;;;;7.77;2.87;;;14.20;99.90;;;;;;5116567;27;20188;-32
2023/05/19 07:48:11;;;;;;;7.33;3.30;;;14.20;99.90;;;;;;5100863;27;20188;-32
2023/05/19 07:50:37;;;;;;;6.07;3.40;;;14.30;99.90;;;;;;5122138;27;20191;-33
2023/05/19 07:53:03;;;;;;;6.90;3.60;;;14.30;99.90;;;;;;5136810;27;20206;-31
2023/05/19 07:55:29;;;;;;;5.47;3.07;;;14.40;99.90;;;;;;5122160;27;20270;-33
2023/05/19 07:57:56;;;;;;;8.83;3.70;;;14.40;99.90;;;;;;5111238;27;20179;-32
2023/05/19 08:00:22;;;;;;;7.93;3.40;;;14.40;99.90;;;;;;5118800;27;20175;-33
2023/05/19 08:02:47;;;;;;;5.20;3.30;;;14.50;99.90;;;;;;5138651;27;20191;-32
2023/05/19 08:05:13;;;;;;;6.93;2.80;;;14.50;99.90;;;;;;5136512;27;20186;-35
2023/05/19 08:07:39;;;;;;;6.30;3.40;;;14.40;99.90;;;;;;5140060;27;20202;-32
2023/05/19 08:10:05;;;;;;;8.70;3.27;;;14.40;99.90;;;;;;5139601;27;20233;-35
2023/05/19 08:12:31;;;;;;;5.40;2.87;;;14.40;99.90;;;;;;5120333;27;20199;-33
2023/05/19 08:14:57;;;;;;;8.30;3.37;;;14.40;99.90;;;;;;5107751;27;20276;-32
2023/05/19 08:17:23;;;;;;;7.33;3.27;;;14.40;99.90;;;;;;5117934;27;20181;-32
2023/05/19 08:19:49;;;;;;;6.20;3.60;;;14.50;99.90;;;;;;5122944;27;20175;-33
2023/05/19 08:22:15;;;;;;;9.73;4.00;;;14.50;99.90;;;;;;5119885;27;20187;-36
2023/05/19 08:24:42;;;;;;;5.03;3.00;;;14.50;99.90;;;;;;5117662;27;20640;-33
2023/05/19 08:27:07;;;;;;;6.57;3.10;;;14.50;99.90;;;;;;5103286;27;20207;-33
2023/05/19 08:29:33;;;;;;;6.47;3.37;;;14.50;99.90;;;;;;5107584;27;20178;-33
2023/05/19 08:32:01;;;;;;;6.20;3.60;;;14.60;99.90;;;;;;5139739;27;20167;-32
2023/05/19 08:34:27;;;;;;;7.83;3.57;;;14.70;99.90;;;;;;5142905;27;20198;-32
2023/05/19 08:36:52;;;;;;;7.53;3.47;;;14.70;99.90;;;;;;5124802;27;20175;-32
2023/05/19 08:39:22;;;;;;;7.43;3.07;;;14.80;99.90;;;;;;5106640;27;20271;-36
2023/05/19 08:41:48;;;;;;;7.23;3.00;;;14.90;99.90;;;;;;5108275;27;20167;-33
2023/05/19 08:44:14;;;;;;;7.97;3.57;;;14.90;99.90;;;;;;5122460;27;20213;-33
2023/05/19 08:46:40;;;;;;;5.33;3.20;;;14.90;99.90;;;;;;5141391;27;20251;-32
2023/05/19 08:49:12;;;;;;;6.70;3.30;;;15.00;99.90;;;;;;5105581;27;20187;-33
2023/05/19 08:51:56;;;;;;;7.13;3.40;;;15.00;99.90;;;;;;5123244;27;20266;-33
2023/05/19 08:54:27;;;;;;;7.07;3.17;;;15.00;99.90;;;;;;5139198;27;20744;-32
2023/05/19 08:56:54;;;;;;;6.87;3.47;;;15.00;99.90;;;;;;5123743;27;20187;-35
2023/05/19 08:59:21;;;;;;;7.50;3.27;;;15.10;99.90;;;;;;5107005;27;20180;-35
2023/05/19 09:01:47;;;;;;;4.80;3.37;;;15.10;99.90;;;;;;5142990;27;20289;-33
2023/05/19 09:04:14;;;;;;;7.77;3.40;;;15.20;99.90;;;;;;5142294;27;20199;-32
2023/05/19 09:06:41;;;;;;;5.53;3.20;;;15.10;99.90;;;;;;5106027;27;20287;-33
2023/05/19 09:09:07;;;;;;;6.27;3.27;;;15.20;99.90;;;;;;5107219;27;20171;-32
2023/05/19 09:11:36;;;;;;;4.70;3.43;;;15.20;99.90;;;;;;5108166;27;20189;-32
2023/05/19 09:14:05;;;;;;;6.10;3.10;;;15.20;99.90;;;;;;5100898;27;20204;-36
2023/05/19 09:16:32;;;;;;;6.57;3.10;;;15.30;99.90;;;;;;5140584;27;20198;-33
2023/05/19 09:18:59;;;;;;;7.80;3.00;;;15.40;99.90;;;;;;5123808;27;20183;-31
2023/05/19 09:21:31;;;;;;;6.80;3.63;;;15.40;99.90;;;;;;5107172;27;20210;-34
2023/05/19 09:24:05;;;;;;;7.67;2.80;;;15.40;99.90;;;;;;5142850;27;20191;-33
2023/05/19 09:26:42;;;;;;;7.80;3.23;;;15.40;99.90;;;;;;5106241;27;20198;-31
2023/05/19 09:29:17;;;;;;;7.17;3.07;;;15.50;99.90;;;;;;5117465;27;20239;-32
2023/05/19 09:31:59;;;;;;;5.10;3.00;;;15.50;99.90;;;;;;5140269;27;20219;-32
2023/05/19 09:34:25;;;;;;;6.20;3.03;;;15.50;99.90;;;;;;5102645;27;20240;-33
2023/05/19 09:36:52;;;;;;;6.93;2.70;;;15.50;99.90;;;;;;5101322;27;20175;-32
2023/05/19 09:39:19;;;;;;;4.60;2.80;;;15.50;99.90;;;;;;5138454;27;20178;-34
2023/05/19 09:41:46;;;;;;;7.23;3.20;;;15.50;99.90;;;;;;5106130;27;20202;-33
2023/05/19 09:44:22;;;;;;;6.33;3.00;;;15.40;99.90;;;;;;5119411;27;20211;-33
2023/05/19 09:46:52;;;;;;;4.60;2.87;;;15.40;99.90;;;;;;5135338;27;20199;-33
2023/05/19 09:49:20;;;;;;;6.33;2.90;;;15.40;99.90;;;;;;5103984;27;20182;-32
2023/05/19 09:51:55;;;;;;;5.43;3.20;;;15.40;99.90;;;;;;5116700;27;20217;-32
2023/05/19 09:54:22;;;;;;;4.60;2.93;;;15.40;99.90;;;;;;5104179;27;20202;-33
2023/05/19 09:56:57;;;;;;;6.03;2.77;;;15.30;99.90;;;;;;5104726;27;20179;-32
2023/05/19 09:59:25;;;;;;;5.90;2.97;;;15.20;99.90;;;;;;5119826;27;20179;-33
2023/05/19 10:01:55;;;;;;;5.47;2.70;;;15.30;99.90;;;;;;5112995;27;20187;-32
2023/05/19 10:04:26;;;;;;;7.20;2.77;;;15.40;99.90;;;;;;5104778;27;20187;-31
2023/05/19 10:07:04;;;;;;;5.20;3.07;;;15.40;99.90;;;;;;5122687;27;20198;-32
2023/05/19 10:09:30;;;;;;;9.60;3.00;;;15.40;99.90;;;;;;5105097;27;20270;-32
2023/05/19 10:11:57;;;;;;;7.57;2.90;;;15.40;99.90;;;;;;5122992;27;20274;-33
2023/05/19 10:14:26;;;;;;;4.43;3.00;;;15.40;99.90;;;;;;5122231;27;20279;-32
2023/05/19 10:16:54;;;;;;;3.97;2.50;;;15.30;99.90;;;;;;5111699;27;20223;-32
2023/05/19 10:19:22;;;;;;;5.70;2.80;;;15.30;99.90;;;;;;5138538;27;20235;-32
2023/05/19 10:21:48;;;;;;;4.43;2.57;;;15.30;99.90;;;;;;5104543;27;20179;-34
2023/05/19 10:24:14;;;;;;;4.27;2.77;;;15.30;99.90;;;;;;5138148;27;20211;-32
2023/05/19 10:26:45;;;;;;;6.73;3.07;;;15.30;99.90;;;;;;5124193;27;20221;-32
2023/05/19 10:29:19;;;;;;;6.67;3.10;;;15.30;99.90;;;;;;5121349;27;20183;-34
2023/05/19 10:31:49;;;;;;;6.17;3.10;;;15.30;99.90;;;;;;5122051;27;20183;-34
2023/05/19 10:34:18;;;;;;;4.47;2.90;;;15.30;99.90;;;;;;5123456;27;20197;-35
2023/05/19 10:36:47;;;;;;;5.07;3.20;;;15.20;99.90;;;;;;5114317;27;20178;-34
2023/05/19 10:39:26;;;;;;;4.77;2.80;;;15.10;99.90;;;;;;5140560;27;20167;-34
2023/05/19 10:42:07;;;;;;;5.37;2.80;;;15.20;99.90;;;;;;5105772;27;20254;-34
2023/05/19 10:44:56;;;;;;;6.00;3.23;;;15.20;99.90;;;;;;5120719;27;20222;-34
2023/05/19 10:47:24;;;;;;;4.20;2.53;;;15.20;99.90;;;;;;5125869;27;20207;-34
2023/05/19 10:49:54;;;;;;;9.07;3.00;;;15.20;99.90;;;;;;5106284;27;20175;-34
2023/05/19 10:52:24;;;;;;;6.17;3.27;;;15.20;99.90;;;;;;5122299;27;20185;-34
2023/05/19 10:54:53;;;;;;;7.57;2.97;;;15.20;99.90;;;;;;5139174;27;20205;-34
2023/05/19 10:57:30;;;;;;;4.03;2.60;;;15.10;99.90;;;;;;5123247;27;20170;-35
2023/05/19 10:59:57;;;;;;;5.00;2.97;;;15.20;99.90;;;;;;5140423;27;20213;-35
2023/05/19 11:02:42;;;;;;;4.10;2.97;;;15.20;99.90;;;;;;5139460;27;20247;-34
2023/05/19 11:05:13;;;;;;;6.43;2.53;;;15.30;99.90;;;;;;5139543;27;20174;-33
2023/05/19 11:07:56;;;;;;;7.67;3.23;;;15.00;99.90;;;;;;5124359;27;20195;-35
2023/05/19 11:10:22;;;;;;;7.50;3.07;;;15.10;99.90;;;;;;5122851;27;20166;-34
2023/05/19 11:12:49;;;;;;;6.70;2.70;;;15.20;99.90;;;;;;5143283;27;20206;-33
2023/05/19 11:15:15;;;;;;;6.73;2.90;;;15.30;99.90;;;;;;5120146;27;20206;-34
2023/05/19 11:17:47;;;;;;;7.73;3.33;;;15.40;99.90;;;;;;5106612;27;20221;-34
2023/05/19 11:20:26;;;;;;;4.60;3.00;;;15.40;99.90;;;;;;5123923;27;20171;-33
2023/05/19 11:23:05;;;;;;;5.50;3.00;;;15.50;99.90;;;;;;5107724;27;20244;-33
2023/05/19 11:25:43;;;;;;;4.97;2.70;;;15.50;99.90;;;;;;5144145;27;20183;-34
2023/05/19 11:28:16;;;;;;;6.13;2.90;;;15.60;99.90;;;;;;5124253;27;20178;-33
2023/05/19 11:30:45;;;;;;;5.70;2.90;;;15.50;99.90;;;;;;5107183;27;20179;-33
2023/05/19 11:33:12;;;;;;;5.10;3.27;;;15.60;99.90;;;;;;5141940;27;20187;-33
2023/05/19 11:35:38;;;;;;;4.77;2.77;;;15.80;99.90;;;;;;5122670;27;20172;-34
2023/05/19 11:38:05;;;;;;;6.27;3.00;;;15.80;99.90;;;;;;5142500;27;20186;-33
2023/05/19 11:40:32;;;;;;;5.80;2.87;;;15.80;99.90;;;;;;5142364;27;20231;-34
2023/05/19 11:43:00;;;;;;;5.07;2.70;;;15.80;99.90;;;;;;5123856;27;20194;-33
2023/05/19 11:45:27;;;;;;;4.97;2.93;;;15.80;99.90;;;;;;5126146;27;20175;-33
2023/05/19 11:47:57;;;;;;;4.43;2.77;;;15.80;99.90;;;;;;5145348;27;20217;-33
2023/05/19 11:50:24;;;;;;;3.47;2.57;;;15.80;99.90;;;;;;5122681;27;20199;-34
2023/05/19 11:52:54;;;;;;;5.03;2.87;;;15.80;99.90;;;;;;5108877;27;20197;-34
2023/05/19 11:55:21;;;;;;;4.97;2.87;;;15.80;99.90;;;;;;5123401;27;20227;-33
2023/05/19 11:57:58;;;;;;;6.03;2.77;;;15.70;99.90;;;;;;5144331;27;20170;-33
2023/05/19 12:00:27;;;;;;;5.97;2.80;;;15.70;99.90;;;;;;5129727;27;20182;-33
2023/05/19 12:02:53;;;;;;;5.57;2.83;;;15.70;99.90;;;;;;5133954;27;20199;-34
2023/05/19 12:05:26;;;;;;;5.17;2.70;;;15.80;99.90;;;;;;5118162;27;20175;-33
2023/05/19 12:07:52;;;;;;;7.07;3.10;;;15.80;99.90;;;;;;5131776;27;20199;-34
2023/05/19 12:10:30;;;;;;;4.70;2.57;;;15.80;99.90;;;;;;5130092;27;20219;-35
2023/05/19 12:12:57;;;;;;;5.07;2.73;;;15.80;99.90;;;;;;5128401;27;20194;-34
2023/05/19 12:15:23;;;;;;;5.17;2.40;;;15.80;99.90;;;;;;5107947;27;20171;-35
2023/05/19 12:18:00;;;;;;;5.23;2.93;;;15.80;99.90;;;;;;5108569;27;20180;-34
2023/05/19 12:20:27;;;;;;;6.07;2.47;;;15.80;99.90;;;;;;5125484;27;20166;-34
2023/05/19 12:22:58;;;;;;;5.40;2.60;;;15.80;99.90;;;;;;5144744;27;20199;-34
2023/05/19 12:25:24;;;;;;;5.53;2.90;;;15.70;99.90;;;;;;5123866;27;20193;-35
2023/05/19 12:27:54;;;;;;;4.93;2.80;;;15.70;99.90;;;;;;5142974;27;20254;-34
2023/05/19 12:30:26;;;;;;;4.53;2.70;;;15.70;99.90;;;;;;5123403;27;20183;-34
2023/05/19 12:32:53;;;;;;;4.47;2.80;;;15.70;99.90;;;;;;5138148;27;20218;-35
2023/05/19 12:35:19;;;;;;;5.23;2.87;;;15.60;99.90;;;;;;5124438;27;20178;-34
2023/05/19 12:37:47;;;;;;;4.60;2.73;;;15.60;99.90;;;;;;5123927;27;20182;-34
2023/05/19 12:40:16;;;;;;;4.40;2.70;;;15.60;99.90;;;;;;5139668;27;20184;-34
2023/05/19 12:42:47;;;;;;;4.03;2.57;;;15.70;99.90;;;;;;5119670;27;20207;-35
2023/05/19 12:45:14;;;;;;;2.93;2.63;;;15.70;99.90;;;;;;5133619;27;20238;-34
2023/05/19 12:47:40;;;;;;;6.40;3.03;;;15.70;99.90;;;;;;5121956;27;20202;-34
2023/05/19 12:50:08;;;;;;;7.23;3.30;;;15.60;99.90;;;;;;5123946;27;20185;-35
2023/05/19 12:52:42;;;;;;;4.43;2.57;;;15.60;99.90;;;;;;5119816;27;20200;-35
2023/05/19 12:55:12;;;;;;;6.50;3.20;;;15.60;99.90;;;;;;5101520;27;20183;-34